createdAt,value
2023-03-30T00:02:23.221Z,23.20
2023-03-30T00:04:52.892Z,22.52
2023-03-30T00:07:21.334Z,23.48
2023-03-30T00:09:49.830Z,21.77
2023-03-30T00:12:20.517Z,21.42
2023-03-30T00:14:51.470Z,21.42
2023-03-30T00:17:19.649Z,20.98
2023-03-30T00:19:48.475Z,22.25
2023-03-30T00:22:16.831Z,22.38
2023-03-30T00:24:44.919Z,21.55
2023-03-30T00:27:13.069Z,21.15
2023-03-30T00:29:41.365Z,20.55
2023-03-30T00:32:10.970Z,19.33
2023-03-30T00:34:39.309Z,20.33
2023-03-30T00:37:07.821Z,18.98
2023-03-30T00:39:35.996Z,19.77
2023-03-30T00:42:04.439Z,19.35
2023-03-30T00:45:08.768Z,19.13
2023-03-30T00:47:42.552Z,19.92
2023-03-30T00:50:12.315Z,18.95
2023-03-30T00:52:43.278Z,19.30
2023-03-30T00:55:13.899Z,18.90
2023-03-30T00:57:44.446Z,19.58
2023-03-30T01:00:14.748Z,18.73
2023-03-30T01:02:48.691Z,18.17
2023-03-30T01:05:18.147Z,18.55
2023-03-30T01:07:49.832Z,18.20
2023-03-30T01:10:19.406Z,18.77
2023-03-30T01:12:48.023Z,18.75
2023-03-30T01:15:17.737Z,18.42
2023-03-30T01:18:04.737Z,18.80
2023-03-30T01:21:15.905Z,17.75
2023-03-30T01:24:29.092Z,17.42
2023-03-30T01:26:59.774Z,17.02
2023-03-30T01:29:53.465Z,16.80
2023-03-30T01:32:51.788Z,17.27
2023-03-30T01:35:53.027Z,16.60
2023-03-30T01:38:42.679Z,17.38
2023-03-30T01:41:20.024Z,16.77
2023-03-30T01:43:53.811Z,18.25
2023-03-30T01:46:31.022Z,16.83
2023-03-30T01:49:08.620Z,17.45
2023-03-30T01:54:34.129Z,15.77
2023-03-30T01:57:08.599Z,16.38
2023-03-30T01:59:42.756Z,16.35
2023-03-30T02:02:14.770Z,15.25
2023-03-30T02:04:45.773Z,15.35
2023-03-30T02:07:18.401Z,15.90
2023-03-30T02:09:50.414Z,15.65
2023-03-30T02:12:22.050Z,15.10
2023-03-30T02:14:51.121Z,14.60
2023-03-30T02:17:24.581Z,14.90
2023-03-30T02:19:56.962Z,14.68
2023-03-30T02:22:27.356Z,14.27
2023-03-30T02:24:58.145Z,14.27
2023-03-30T02:27:28.627Z,13.10
2023-03-30T02:29:57.053Z,13.50
2023-03-30T02:32:28.769Z,14.05
2023-03-30T02:35:18.843Z,13.05
2023-03-30T02:38:17.137Z,12.70
2023-03-30T02:40:57.092Z,12.93
2023-03-30T02:43:35.308Z,12.48
2023-03-30T02:46:40.309Z,12.60
2023-03-30T02:49:17.182Z,12.27
2023-03-30T02:51:55.906Z,12.25
2023-03-30T02:54:39.841Z,12.70
2023-03-30T02:57:29.927Z,12.68
2023-03-30T03:00:23.243Z,12.23
2023-03-30T03:02:57.403Z,11.30
2023-03-30T03:05:32.482Z,11.60
2023-03-30T03:08:15.772Z,11.52
2023-03-30T03:10:45.445Z,12.05
2023-03-30T03:13:16.236Z,11.13
2023-03-30T03:15:49.448Z,11.00
2023-03-30T03:18:18.553Z,10.55
2023-03-30T03:20:46.812Z,10.70
2023-03-30T03:23:15.288Z,10.75
2023-03-30T03:25:48.970Z,10.40
2023-03-30T03:28:19.810Z,10.48
2023-03-30T03:30:52.492Z,10.27
2023-03-30T03:33:24.350Z,9.90
2023-03-30T03:36:15.398Z,10.63
2023-03-30T03:38:49.242Z,10.10
2023-03-30T03:41:18.121Z,9.07
2023-03-30T03:43:46.926Z,11.43
2023-03-30T03:46:19.086Z,11.55
2023-03-30T03:48:47.366Z,11.93
2023-03-30T03:51:15.583Z,13.57
2023-03-30T03:53:44.418Z,12.05
2023-03-30T03:56:14.801Z,11.75
2023-03-30T03:58:43.248Z,12.40
2023-03-30T04:01:14.607Z,12.23
2023-03-30T04:03:44.466Z,12.00
2023-03-30T04:06:12.963Z,12.18
2023-03-30T04:08:41.170Z,11.05
2023-03-30T04:11:20.324Z,11.73
2023-03-30T04:14:11.814Z,9.63
2023-03-30T04:16:51.370Z,10.60
2023-03-30T04:19:36.278Z,9.93
2023-03-30T04:22:42.920Z,9.57
2023-03-30T04:25:30.073Z,10.13
2023-03-30T04:27:58.310Z,10.00
2023-03-30T04:30:52.699Z,9.02
2023-03-30T04:33:56.493Z,9.32
2023-03-30T04:36:44.849Z,8.93
2023-03-30T04:39:36.226Z,9.60
2023-03-30T04:42:38.014Z,9.18
2023-03-30T04:45:42.229Z,8.60
2023-03-30T04:48:34.146Z,9.88
2023-03-30T04:51:20.740Z,8.60
2023-03-30T04:53:59.701Z,8.02
2023-03-30T04:56:46.377Z,8.07
2023-03-30T04:59:41.829Z,7.50
2023-03-30T05:02:28.809Z,7.45
2023-03-30T05:05:29.708Z,7.53
2023-03-30T05:08:10.162Z,6.30
2023-03-30T05:11:01.218Z,6.13
2023-03-30T05:13:47.299Z,5.93
2023-03-30T05:16:42.276Z,5.60
2023-03-30T05:19:36.804Z,5.72
2023-03-30T05:22:20.068Z,4.78
2023-03-30T05:25:27.174Z,5.25
2023-03-30T05:28:09.539Z,5.47
2023-03-30T05:31:11.044Z,5.53
2023-03-30T05:33:49.393Z,4.60
2023-03-30T05:36:32.411Z,4.97
2023-03-30T05:39:24.803Z,5.00
2023-03-30T05:42:07.366Z,4.63
2023-03-30T05:44:57.760Z,4.65
2023-03-30T05:47:44.633Z,4.13
2023-03-30T05:50:46.670Z,4.22
2023-03-30T05:53:23.882Z,4.10
2023-03-30T05:56:21.881Z,4.20
2023-03-30T05:58:57.888Z,4.18
2023-03-30T06:01:44.954Z,4.00
2023-03-30T06:04:13.765Z,3.72
2023-03-30T06:06:45.280Z,3.83
2023-03-30T06:09:13.552Z,3.25
2023-03-30T06:11:41.687Z,3.97
2023-03-30T06:14:19.621Z,3.25
2023-03-30T06:17:12.094Z,3.88
2023-03-30T06:19:41.452Z,3.10
2023-03-30T06:22:10.369Z,3.30
2023-03-30T06:25:02.017Z,2.75
2023-03-30T06:27:32.193Z,3.17
2023-03-30T06:36:01.452Z,2.72
2023-03-30T06:38:30.367Z,3.20
2023-03-30T06:40:58.459Z,3.25
2023-03-30T06:43:29.488Z,3.17
2023-03-30T06:46:17.568Z,3.47
2023-03-30T06:48:48.485Z,3.30
2023-03-30T06:51:36.667Z,3.10
2023-03-30T06:54:07.339Z,2.88
2023-03-30T06:56:39.193Z,2.90
2023-03-30T06:59:14.334Z,3.00
2023-03-30T07:02:03.264Z,3.20
2023-03-30T07:04:50.417Z,3.35
2023-03-30T07:07:28.137Z,2.67
2023-03-30T07:09:56.744Z,3.08
2023-03-30T07:12:25.147Z,2.58
2023-03-30T07:14:54.342Z,2.45
2023-03-30T07:17:26.483Z,2.17
2023-03-30T07:19:55.686Z,2.70
2023-03-30T07:22:23.824Z,2.35
2023-03-30T07:24:54.561Z,2.88
2023-03-30T07:27:25.377Z,2.63
2023-03-30T07:30:07.292Z,2.47
2023-03-30T07:32:44.146Z,2.60
2023-03-30T07:35:13.431Z,2.92
2023-03-30T07:37:43.009Z,2.25
2023-03-30T07:40:13.121Z,2.42
2023-03-30T07:42:43.420Z,2.53
2023-03-30T07:45:14.940Z,2.20
2023-03-30T07:47:46.901Z,2.20
2023-03-30T07:50:16.986Z,2.20
2023-03-30T07:52:45.786Z,2.50
2023-03-30T07:55:15.705Z,2.28
2023-03-30T07:57:51.109Z,2.28
2023-03-30T08:00:21.689Z,2.20
2023-03-30T08:03:09.912Z,2.47
2023-03-30T08:05:38.711Z,1.85
2023-03-30T08:08:19.396Z,2.00
2023-03-30T08:10:49.207Z,1.83
2023-03-30T08:13:18.294Z,1.73
2023-03-30T08:15:48.213Z,2.40
2023-03-30T08:18:41.462Z,1.67
2023-03-30T08:24:09.957Z,1.83
2023-03-30T08:26:39.604Z,2.50
2023-03-30T08:29:08.315Z,1.95
2023-03-30T08:31:37.876Z,2.42
2023-03-30T08:34:07.143Z,1.60
2023-03-30T08:36:35.231Z,1.75
2023-03-30T08:39:04.749Z,1.98
2023-03-30T08:45:05.471Z,3.05
2023-03-30T08:47:38.175Z,1.90
2023-03-30T08:50:10.295Z,1.77
2023-03-30T08:52:38.924Z,1.67
2023-03-30T08:55:07.900Z,2.13
2023-03-30T08:57:48.692Z,1.67
2023-03-30T09:00:27.483Z,1.73
2023-03-30T09:03:03.921Z,1.65
2023-03-30T09:05:34.963Z,1.60
2023-03-30T09:08:09.025Z,2.08
2023-03-30T09:10:42.625Z,1.50
2023-03-30T09:13:16.717Z,2.00
2023-03-30T09:15:50.110Z,1.80
2023-03-30T09:18:23.987Z,2.10
2023-03-30T09:20:53.243Z,1.73
2023-03-30T09:23:21.501Z,2.10
2023-03-30T09:25:55.504Z,1.70
2023-03-30T09:28:33.845Z,1.65
2023-03-30T09:31:08.843Z,1.88
2023-03-30T09:33:45.211Z,1.63
2023-03-30T09:36:17.429Z,1.65
2023-03-30T09:38:46.369Z,1.58
2023-03-30T09:41:33.376Z,1.65
2023-03-30T09:44:03.484Z,1.45
2023-03-30T09:46:40.550Z,1.42
2023-03-30T09:49:16.596Z,1.42
2023-03-30T09:51:57.171Z,1.73
2023-03-30T09:54:26.156Z,1.55
2023-03-30T09:56:56.984Z,2.05
2023-03-30T09:59:33.945Z,1.40
2023-03-30T10:02:16.570Z,2.03
2023-03-30T10:05:02.269Z,1.85
2023-03-30T10:07:33.916Z,1.95
2023-03-30T10:10:13.093Z,2.20
2023-03-30T10:12:41.345Z,1.70
2023-03-30T10:15:17.854Z,1.77
2023-03-30T10:17:48.568Z,2.38
2023-03-30T10:20:29.651Z,1.77
2023-03-30T10:23:03.086Z,1.88
2023-03-30T10:25:34.843Z,1.55
2023-03-30T10:28:04.812Z,1.60
2023-03-30T10:30:35.316Z,1.70
2023-03-30T10:33:04.062Z,1.40
2023-03-30T10:35:36.777Z,1.50
2023-03-30T10:38:07.100Z,1.92
2023-03-30T10:40:37.850Z,1.52
2023-03-30T10:43:11.899Z,1.40
2023-03-30T10:45:45.635Z,1.65
2023-03-30T10:48:27.309Z,1.40
2023-03-30T10:51:02.394Z,1.90
2023-03-30T10:53:42.993Z,2.03
2023-03-30T10:56:22.514Z,2.03
2023-03-30T10:59:33.503Z,1.73
2023-03-30T11:02:17.286Z,1.50
2023-03-30T11:04:50.181Z,2.22
2023-03-30T11:07:29.186Z,1.70
2023-03-30T11:10:03.959Z,1.85
2023-03-30T11:12:37.469Z,1.75
2023-03-30T11:15:10.904Z,1.95
2023-03-30T11:17:48.140Z,1.63
2023-03-30T11:20:27.303Z,1.45
2023-03-30T11:23:10.954Z,1.83
2023-03-30T11:25:47.872Z,2.60
2023-03-30T11:28:22.899Z,2.10
2023-03-30T11:30:55.274Z,2.15
2023-03-30T11:33:30.528Z,2.03
2023-03-30T11:36:05.325Z,2.15
2023-03-30T11:38:41.977Z,2.05
2023-03-30T11:41:15.566Z,2.45
2023-03-30T11:43:44.559Z,2.15
2023-03-30T11:46:20.288Z,2.40
2023-03-30T11:49:05.870Z,3.30
2023-03-30T11:51:49.947Z,2.22
2023-03-30T11:55:03.649Z,2.33
2023-03-30T11:57:39.356Z,2.25
2023-03-30T12:00:31.235Z,2.40
2023-03-30T12:03:14.347Z,2.97
2023-03-30T12:05:46.259Z,2.25
2023-03-30T12:08:28.195Z,3.20
2023-03-30T12:11:07.461Z,2.50
2023-03-30T12:13:48.441Z,3.38
2023-03-30T12:16:25.659Z,2.70
2023-03-30T12:19:08.734Z,2.25
2023-03-30T12:21:42.404Z,2.90
2023-03-30T12:24:18.139Z,1.92
2023-03-30T12:26:58.155Z,2.00
2023-03-30T12:30:01.828Z,3.03
2023-03-30T12:32:32.172Z,2.63
2023-03-30T12:35:00.266Z,2.47
2023-03-30T12:37:33.698Z,2.72
2023-03-30T12:40:09.028Z,2.53
2023-03-30T12:42:46.289Z,2.47
2023-03-30T12:45:32.772Z,2.42
2023-03-30T12:48:26.445Z,2.55
2023-03-30T12:51:08.493Z,2.45
2023-03-30T12:54:04.631Z,1.77
2023-03-30T12:56:39.056Z,2.53
2023-03-30T12:59:33.393Z,2.25
2023-03-30T13:02:09.016Z,2.40
2023-03-30T13:04:40.466Z,2.05
2023-03-30T13:07:15.763Z,2.05
2023-03-30T13:09:56.464Z,2.10
2023-03-30T13:12:40.406Z,1.88
2023-03-30T13:15:43.473Z,2.20
2023-03-30T13:18:41.035Z,2.13
2023-03-30T13:21:26.202Z,2.33
2023-03-30T13:24:05.237Z,2.08
2023-03-30T13:26:45.307Z,2.00
2023-03-30T13:29:17.072Z,2.13
2023-03-30T13:32:00.631Z,2.08
2023-03-30T13:35:03.196Z,2.20
2023-03-30T13:37:59.434Z,1.90
2023-03-30T13:40:40.263Z,2.40
2023-03-30T13:43:24.564Z,1.90
2023-03-30T13:48:48.719Z,2.20
2023-03-30T13:51:21.606Z,2.42
2023-03-30T13:53:53.029Z,2.00
2023-03-30T13:56:22.282Z,2.75
2023-03-30T13:58:57.628Z,2.40
2023-03-30T14:01:26.268Z,2.45
2023-03-30T14:03:57.013Z,2.35
2023-03-30T14:06:28.780Z,1.90
2023-03-30T14:09:10.228Z,2.25
2023-03-30T14:11:44.657Z,2.00
2023-03-30T14:14:19.076Z,1.90
2023-03-30T14:16:47.951Z,2.47
2023-03-30T14:19:24.323Z,2.33
2023-03-30T14:21:57.282Z,2.60
2023-03-30T14:24:30.689Z,2.05
2023-03-30T14:27:08.009Z,2.67
2023-03-30T14:29:45.336Z,2.72
2023-03-30T14:32:16.119Z,2.70
2023-03-30T14:34:47.955Z,2.67
2023-03-30T14:37:21.035Z,2.97
2023-03-30T14:39:53.201Z,2.50
2023-03-30T14:42:25.368Z,2.45
2023-03-30T14:44:56.545Z,2.00
2023-03-30T14:47:27.317Z,2.03
2023-03-30T14:49:58.769Z,1.88
2023-03-30T14:52:32.529Z,2.00
2023-03-30T14:55:06.587Z,2.45
2023-03-30T14:57:39.007Z,1.75
2023-03-30T15:00:20.367Z,1.90
2023-03-30T15:02:52.294Z,2.30
2023-03-30T15:05:23.406Z,2.70
2023-03-30T15:07:54.394Z,3.03
2023-03-30T15:10:25.120Z,3.53
2023-03-30T15:12:57.616Z,2.60
2023-03-30T15:15:30.123Z,2.65
2023-03-30T15:17:58.936Z,3.15
2023-03-30T15:20:29.648Z,2.95
2023-03-30T15:23:00.972Z,3.35
2023-03-30T15:25:32.399Z,3.08
2023-03-30T15:28:06.818Z,3.05
2023-03-30T15:30:38.728Z,2.38
2023-03-30T15:33:08.435Z,4.90
2023-03-30T15:35:38.389Z,2.80
2023-03-30T15:38:17.216Z,2.90
2023-03-30T15:40:46.291Z,2.72
2023-03-30T15:43:20.111Z,3.30
2023-03-30T15:45:51.679Z,3.58
2023-03-30T15:48:24.060Z,3.00
2023-03-30T15:50:56.447Z,3.20
2023-03-30T15:53:36.519Z,2.53
2023-03-30T15:56:06.433Z,2.70
2023-03-30T15:58:35.281Z,2.70
2023-03-30T16:01:06.138Z,2.58
2023-03-30T16:03:40.579Z,3.00
2023-03-30T16:06:14.502Z,3.83
2023-03-30T16:08:45.213Z,3.30
2023-03-30T16:11:16.385Z,2.60
2023-03-30T16:13:46.069Z,2.80
2023-03-30T16:16:15.245Z,3.17
2023-03-30T16:18:43.746Z,2.50
2023-03-30T16:21:12.381Z,2.92
2023-03-30T16:23:40.687Z,3.28
2023-03-30T16:26:12.374Z,3.90
2023-03-30T16:28:42.721Z,3.88
2023-03-30T16:31:16.902Z,3.15
2023-03-30T16:33:45.601Z,3.88
2023-03-30T16:36:16.467Z,2.90
2023-03-30T16:38:45.229Z,3.55
2023-03-30T16:41:19.405Z,3.03
2023-03-30T16:46:17.329Z,3.40
2023-03-30T16:48:46.994Z,3.78
2023-03-30T16:51:16.509Z,3.55
2023-03-30T16:53:44.677Z,3.63
2023-03-30T16:56:18.225Z,2.92
2023-03-30T16:58:47.029Z,3.00
2023-03-30T17:01:18.549Z,3.28
2023-03-30T17:03:47.255Z,3.90
2023-03-30T17:06:16.941Z,3.13
2023-03-30T17:08:45.303Z,3.30
2023-03-30T17:11:14.957Z,3.85
2023-03-30T17:13:43.558Z,3.13
2023-03-30T17:16:13.845Z,3.45
2023-03-30T17:18:45.408Z,3.25
2023-03-30T17:21:16.414Z,3.33
2023-03-30T17:23:47.604Z,3.80
2023-03-30T17:26:17.670Z,2.75
2023-03-30T17:28:46.739Z,4.20
2023-03-30T17:31:18.631Z,3.78
2023-03-30T17:33:47.516Z,3.22
2023-03-30T17:36:18.701Z,4.53
2023-03-30T17:38:47.290Z,2.88
2023-03-30T17:41:19.310Z,3.25
2023-03-30T17:43:48.892Z,3.90
2023-03-30T17:46:18.856Z,3.30
2023-03-30T17:48:47.321Z,3.63
2023-03-30T17:51:15.649Z,3.63
2023-03-30T17:53:43.724Z,2.95
2023-03-30T17:56:13.889Z,4.22
2023-03-30T17:58:43.515Z,4.18
2023-03-30T18:01:12.796Z,3.67
2023-03-30T18:03:41.195Z,4.32
2023-03-30T18:06:12.697Z,4.35
2023-03-30T18:08:40.941Z,4.25
2023-03-30T18:11:09.329Z,4.07
2023-03-30T18:13:38.192Z,4.30
2023-03-30T18:16:08.051Z,3.50
2023-03-30T18:18:36.747Z,3.88
2023-03-30T18:21:06.918Z,3.63
2023-03-30T18:23:35.888Z,3.83
2023-03-30T18:26:09.316Z,3.47
2023-03-30T18:28:43.728Z,3.60
2023-03-30T18:31:13.997Z,3.93
2023-03-30T18:33:42.038Z,3.78
2023-03-30T18:36:12.964Z,3.53
2023-03-30T18:38:41.957Z,3.47
2023-03-30T18:41:11.872Z,3.88
2023-03-30T18:43:40.001Z,3.90
2023-03-30T18:46:10.454Z,4.13
2023-03-30T18:48:39.952Z,3.63
2023-03-30T18:51:08.332Z,3.92
2023-03-30T18:53:36.869Z,4.13
2023-03-30T18:56:05.125Z,4.35
2023-03-30T18:58:41.468Z,4.57
2023-03-30T19:01:13.130Z,3.92
2023-03-30T19:03:42.906Z,3.65
2023-03-30T19:06:13.912Z,4.65
2023-03-30T19:08:43.601Z,4.18
2023-03-30T19:11:17.334Z,4.03
2023-03-30T19:13:47.331Z,4.05
2023-03-30T19:16:18.463Z,3.70
2023-03-30T19:18:49.432Z,4.22
2023-03-30T19:21:19.033Z,4.50
2023-03-30T19:23:47.326Z,4.00
2023-03-30T19:26:15.792Z,3.97
2023-03-30T19:28:44.068Z,4.72
2023-03-30T19:31:15.743Z,3.85
2023-03-30T19:33:44.504Z,4.90
2023-03-30T19:36:14.042Z,4.15
2023-03-30T19:38:43.843Z,3.72
2023-03-30T19:41:12.112Z,4.03
2023-03-30T19:43:40.187Z,4.13
2023-03-30T19:46:08.655Z,4.38
2023-03-30T19:48:37.009Z,3.63
2023-03-30T19:51:07.180Z,4.60
2023-03-30T19:53:37.245Z,4.45
2023-03-30T19:56:10.218Z,4.43
2023-03-30T19:58:38.406Z,4.03
2023-03-30T20:01:08.066Z,4.18
2023-03-30T20:03:36.511Z,5.68
2023-03-30T20:06:04.991Z,4.35
2023-03-30T20:08:33.239Z,5.35
2023-03-30T20:11:07.935Z,5.32
2023-03-30T20:13:37.143Z,4.78
2023-03-30T20:16:06.020Z,4.72
2023-03-30T20:18:35.707Z,4.88
2023-03-30T20:21:04.655Z,4.43
2023-03-30T20:23:33.030Z,5.35
2023-03-30T20:26:05.607Z,5.63
2023-03-30T20:28:33.887Z,5.30
2023-03-30T20:31:02.081Z,4.30
2023-03-30T20:33:33.327Z,4.85
2023-03-30T20:36:01.546Z,5.20
2023-03-30T20:38:29.714Z,5.28
2023-03-30T20:40:59.249Z,4.97
2023-03-30T20:43:28.818Z,4.50
2023-03-30T20:46:02.799Z,5.35
2023-03-30T20:48:33.370Z,4.82
2023-03-30T20:51:03.653Z,4.28
2023-03-30T20:53:33.830Z,4.10
2023-03-30T20:56:02.951Z,5.32
2023-03-30T20:58:32.750Z,5.95
2023-03-30T21:01:01.606Z,4.50
2023-03-30T21:03:30.189Z,4.65
2023-03-30T21:06:02.815Z,5.43
2023-03-30T21:08:32.391Z,5.68
2023-03-30T21:11:01.701Z,5.32
2023-03-30T21:13:30.281Z,4.75
2023-03-30T21:16:00.601Z,5.13
2023-03-30T21:18:29.513Z,5.60
2023-03-30T21:20:58.332Z,5.90
2023-03-30T21:23:26.808Z,6.30
2023-03-30T21:25:57.836Z,5.40
2023-03-30T21:28:28.365Z,5.25
2023-03-30T21:30:57.756Z,4.88
2023-03-30T21:33:29.185Z,4.75
2023-03-30T21:35:59.297Z,4.57
2023-03-30T21:38:29.513Z,4.28
2023-03-30T21:40:59.893Z,4.53
2023-03-30T21:43:29.470Z,4.40
2023-03-30T21:45:59.918Z,4.35
2023-03-30T21:48:31.415Z,3.97
2023-03-30T21:51:00.867Z,4.13
2023-03-30T21:53:30.207Z,4.63
2023-03-30T21:55:58.738Z,3.90
2023-03-30T21:58:27.754Z,3.80
2023-03-30T22:01:08.938Z,4.25
2023-03-30T22:03:41.364Z,4.18
2023-03-30T22:06:14.056Z,4.20
2023-03-30T22:08:42.697Z,4.03
2023-03-30T22:11:13.800Z,3.65
2023-03-30T22:13:42.205Z,4.03
2023-03-30T22:16:13.614Z,4.15
2023-03-30T22:18:44.272Z,3.97
2023-03-30T22:21:15.522Z,3.72
2023-03-30T22:23:43.654Z,5.63
2023-03-30T22:26:12.481Z,4.03
2023-03-30T22:28:40.801Z,3.97
2023-03-30T22:31:09.386Z,3.50
2023-03-30T22:33:37.525Z,3.38
2023-03-30T22:36:17.003Z,3.30
2023-03-30T22:38:45.487Z,3.30
2023-03-30T22:41:13.758Z,3.28
2023-03-30T22:43:42.135Z,3.10
2023-03-30T22:46:11.062Z,3.30
2023-03-30T22:48:45.184Z,3.50
2023-03-30T22:51:15.141Z,3.72
2023-03-30T22:53:43.190Z,3.90
2023-03-30T22:56:11.888Z,3.10
2023-03-30T22:58:39.926Z,3.38
2023-03-30T23:01:10.362Z,3.38
2023-03-30T23:03:39.048Z,3.60
2023-03-30T23:06:08.161Z,3.88
2023-03-30T23:08:39.025Z,3.33
2023-03-30T23:11:08.347Z,3.70
2023-03-30T23:13:38.187Z,3.38
2023-03-30T23:16:08.450Z,3.80
2023-03-30T23:18:37.152Z,4.03
2023-03-30T23:21:06.774Z,3.75
2023-03-30T23:23:37.136Z,3.35
2023-03-30T23:26:08.386Z,3.55
2023-03-30T23:28:38.911Z,3.25
2023-03-30T23:31:11.834Z,3.35
2023-03-30T23:33:40.506Z,3.28
2023-03-30T23:36:10.113Z,3.55
2023-03-30T23:38:40.124Z,3.85
2023-03-30T23:41:08.189Z,4.20
2023-03-30T23:43:36.575Z,3.33
2023-03-30T23:46:05.306Z,3.92
2023-03-30T23:48:34.004Z,3.67
2023-03-30T23:51:02.438Z,3.92
2023-03-30T23:53:30.834Z,3.13
2023-03-30T23:56:05.970Z,3.15
2023-03-30T23:58:34.304Z,3.75
